createdAt,value
2023-03-29T00:01:35.670Z,6.67
2023-03-29T00:04:04.723Z,6.69
2023-03-29T00:06:33.091Z,6.70
2023-03-29T00:09:00.124Z,6.68
2023-03-29T00:11:27.250Z,6.76
2023-03-29T00:13:54.107Z,6.72
2023-03-29T00:16:20.709Z,6.74
2023-03-29T00:18:47.192Z,6.69
2023-03-29T00:21:13.817Z,6.70
2023-03-29T00:23:44.142Z,6.70
2023-03-29T00:26:11.677Z,6.71
2023-03-29T00:28:38.197Z,6.70
2023-03-29T00:31:13.618Z,6.73
2023-03-29T00:33:40.524Z,6.72
2023-03-29T00:36:08.756Z,6.72
2023-03-29T00:38:36.068Z,6.70
2023-03-29T00:41:04.408Z,6.70
2023-03-29T00:43:31.074Z,6.65
2023-03-29T00:45:57.556Z,6.66
2023-03-29T00:48:27.889Z,6.69
2023-03-29T00:50:58.828Z,6.72
2023-03-29T00:53:28.267Z,6.74
2023-03-29T00:56:07.721Z,6.73
2023-03-29T00:58:42.140Z,6.75
2023-03-29T01:01:15.575Z,6.71
2023-03-29T01:03:54.100Z,6.75
2023-03-29T01:06:25.028Z,6.78
2023-03-29T01:08:57.083Z,6.81
2023-03-29T01:11:34.358Z,6.84
2023-03-29T01:14:05.513Z,6.82
2023-03-29T01:16:36.021Z,6.81
2023-03-29T01:19:03.669Z,6.84
2023-03-29T01:21:33.431Z,6.82
2023-03-29T01:24:06.632Z,6.82
2023-03-29T01:26:51.944Z,6.85
2023-03-29T01:29:25.846Z,6.86
2023-03-29T01:32:01.783Z,6.86
2023-03-29T01:34:37.670Z,6.86
2023-03-29T01:37:15.688Z,6.89
2023-03-29T01:39:42.129Z,6.88
2023-03-29T01:42:36.873Z,6.89
2023-03-29T01:45:28.496Z,6.94
2023-03-29T01:47:55.087Z,6.96
2023-03-29T01:50:47.239Z,6.97
2023-03-29T01:53:28.520Z,6.96
2023-03-29T01:56:00.379Z,7.00
2023-03-29T01:58:33.716Z,6.99
2023-03-29T02:01:05.601Z,7.03
2023-03-29T02:03:34.781Z,7.06
2023-03-29T02:06:03.290Z,7.02
2023-03-29T02:08:30.459Z,7.05
2023-03-29T02:10:56.983Z,7.03
2023-03-29T02:13:23.419Z,7.08
2023-03-29T02:15:49.950Z,7.06
2023-03-29T02:18:17.715Z,7.06
2023-03-29T02:20:48.864Z,7.07
2023-03-29T02:23:24.265Z,7.06
2023-03-29T02:25:56.925Z,7.09
2023-03-29T02:28:25.582Z,7.10
2023-03-29T02:30:53.509Z,7.13
2023-03-29T02:34:03.508Z,7.04
2023-03-29T02:36:41.710Z,7.07
2023-03-29T02:39:10.454Z,7.09
2023-03-29T02:41:38.759Z,7.13
2023-03-29T02:44:08.239Z,7.14
2023-03-29T02:46:35.389Z,7.19
2023-03-29T02:49:02.027Z,7.22
2023-03-29T02:51:32.443Z,7.22
2023-03-29T02:54:15.393Z,7.27
2023-03-29T02:56:43.345Z,7.24
2023-03-29T02:59:09.928Z,7.30
2023-03-29T03:01:36.930Z,7.30
2023-03-29T03:04:03.626Z,7.32
2023-03-29T03:06:30.120Z,7.33
2023-03-29T03:08:56.720Z,7.34
2023-03-29T03:11:23.903Z,7.38
2023-03-29T03:13:50.370Z,7.38
2023-03-29T03:16:16.997Z,7.41
2023-03-29T03:18:45.978Z,7.43
2023-03-29T03:21:13.334Z,7.47
2023-03-29T03:23:40.400Z,7.51
2023-03-29T03:26:08.620Z,7.50
2023-03-29T03:28:35.200Z,7.48
2023-03-29T03:31:01.905Z,7.48
2023-03-29T03:33:29.173Z,7.45
2023-03-29T03:36:06.206Z,7.52
2023-03-29T03:38:33.427Z,7.53
2023-03-29T03:41:01.193Z,7.52
2023-03-29T03:43:28.831Z,7.50
2023-03-29T03:45:56.473Z,7.50
2023-03-29T03:48:24.777Z,7.50
2023-03-29T03:50:53.943Z,7.53
2023-03-29T03:53:21.220Z,7.53
2023-03-29T03:55:52.617Z,7.52
2023-03-29T03:58:19.177Z,7.50
2023-03-29T04:00:48.640Z,7.51
2023-03-29T04:03:15.606Z,7.50
2023-03-29T04:05:44.616Z,7.51
2023-03-29T04:08:12.548Z,7.52
2023-03-29T04:10:39.531Z,7.53
2023-03-29T04:13:06.464Z,7.55
2023-03-29T04:15:34.353Z,7.55
2023-03-29T04:18:01.026Z,7.58
2023-03-29T04:20:27.698Z,7.60
2023-03-29T04:22:54.264Z,7.57
2023-03-29T04:25:22.277Z,7.57
2023-03-29T04:27:50.387Z,7.58
2023-03-29T04:30:17.108Z,7.62
2023-03-29T04:32:43.595Z,7.63
2023-03-29T04:35:10.587Z,7.66
2023-03-29T04:37:40.250Z,7.69
2023-03-29T04:40:14.933Z,7.66
2023-03-29T04:42:44.656Z,7.67
2023-03-29T04:45:13.998Z,7.65
2023-03-29T04:47:41.976Z,7.68
2023-03-29T04:50:08.938Z,7.71
2023-03-29T04:52:35.515Z,7.69
2023-03-29T04:55:02.812Z,7.69
2023-03-29T04:57:29.530Z,7.74
2023-03-29T04:59:56.538Z,7.75
2023-03-29T05:02:23.394Z,7.79
2023-03-29T05:04:50.454Z,7.74
2023-03-29T05:07:18.158Z,7.77
2023-03-29T05:09:44.662Z,7.78
2023-03-29T05:12:11.141Z,7.77
2023-03-29T05:14:37.607Z,7.80
2023-03-29T05:17:05.141Z,7.80
2023-03-29T05:19:31.998Z,7.83
2023-03-29T05:21:59.080Z,7.81
2023-03-29T05:24:25.790Z,7.81
2023-03-29T05:26:52.395Z,7.82
2023-03-29T05:29:19.275Z,7.83
2023-03-29T05:31:47.093Z,7.84
2023-03-29T05:34:13.762Z,7.80
2023-03-29T05:36:40.421Z,7.84
2023-03-29T05:39:07.344Z,7.87
2023-03-29T05:41:34.546Z,7.88
2023-03-29T05:44:01.525Z,7.87
2023-03-29T05:46:28.297Z,7.87
2023-03-29T05:48:54.868Z,7.89
2023-03-29T05:51:24.229Z,7.90
2023-03-29T05:53:52.040Z,7.91
2023-03-29T05:56:19.062Z,7.92
2023-03-29T05:58:49.445Z,7.97
2023-03-29T06:01:17.989Z,7.99
2023-03-29T06:03:46.337Z,8.05
2023-03-29T06:06:16.173Z,8.09
2023-03-29T06:08:44.026Z,8.09
2023-03-29T06:11:12.139Z,8.10
2023-03-29T06:13:39.024Z,8.12
2023-03-29T06:16:10.264Z,8.13
2023-03-29T06:18:40.131Z,8.18
2023-03-29T06:21:09.177Z,8.22
2023-03-29T06:23:36.455Z,8.21
2023-03-29T06:26:03.542Z,8.26
2023-03-29T06:28:30.582Z,8.29
2023-03-29T06:31:02.543Z,8.36
2023-03-29T06:33:30.624Z,8.41
2023-03-29T06:35:57.553Z,8.45
2023-03-29T06:38:26.346Z,8.46
2023-03-29T06:41:00.535Z,8.42
2023-03-29T06:43:27.266Z,8.41
2023-03-29T06:45:54.500Z,8.43
2023-03-29T06:48:21.368Z,8.48
2023-03-29T06:50:48.876Z,8.53
2023-03-29T06:53:18.472Z,8.60
2023-03-29T06:55:45.676Z,8.59
2023-03-29T06:58:12.351Z,8.67
2023-03-29T07:00:39.426Z,8.72
2023-03-29T07:03:08.148Z,8.75
2023-03-29T07:05:36.540Z,8.79
2023-03-29T07:08:13.739Z,8.77
2023-03-29T07:10:43.276Z,8.84
2023-03-29T07:13:15.448Z,8.93
2023-03-29T07:15:43.262Z,8.97
2023-03-29T07:18:10.304Z,8.97
2023-03-29T07:20:38.793Z,9.03
2023-03-29T07:23:06.762Z,9.08
2023-03-29T07:25:34.044Z,9.14
2023-03-29T07:28:00.570Z,9.24
2023-03-29T07:30:31.667Z,9.31
2023-03-29T07:32:59.102Z,9.33
2023-03-29T07:35:26.839Z,9.36
2023-03-29T07:37:54.961Z,9.48
2023-03-29T07:40:23.682Z,9.48
2023-03-29T07:42:53.821Z,9.48
2023-03-29T07:45:26.637Z,9.53
2023-03-29T07:47:57.744Z,9.62
2023-03-29T07:50:24.721Z,9.63
2023-03-29T07:52:51.333Z,9.61
2023-03-29T07:55:18.475Z,9.60
2023-03-29T07:57:44.928Z,9.64
2023-03-29T08:00:16.275Z,9.74
2023-03-29T08:02:44.867Z,9.78
2023-03-29T08:05:16.275Z,9.75
2023-03-29T08:07:46.807Z,9.78
2023-03-29T08:10:15.850Z,9.81
2023-03-29T08:12:43.154Z,9.79
2023-03-29T08:15:10.790Z,9.85
2023-03-29T08:17:37.941Z,9.87
2023-03-29T08:20:06.150Z,9.94
2023-03-29T08:22:33.407Z,9.97
2023-03-29T08:25:00.022Z,10.06
2023-03-29T08:27:26.626Z,10.14
2023-03-29T08:29:53.145Z,10.18
2023-03-29T08:32:19.671Z,10.32
2023-03-29T08:34:46.872Z,10.31
2023-03-29T08:37:14.842Z,10.34
2023-03-29T08:39:41.418Z,10.35
2023-03-29T08:42:14.051Z,10.32
2023-03-29T08:44:57.978Z,10.34
2023-03-29T08:47:46.691Z,10.39
2023-03-29T08:50:14.656Z,10.27
2023-03-29T08:52:53.534Z,10.26
2023-03-29T08:55:38.165Z,10.20
2023-03-29T08:58:08.201Z,10.27
2023-03-29T09:00:54.022Z,10.34
2023-03-29T09:03:34.557Z,10.36
2023-03-29T09:06:15.346Z,10.41
2023-03-29T09:08:47.854Z,10.45
2023-03-29T09:11:23.561Z,10.50
2023-03-29T09:14:29.138Z,10.51
2023-03-29T09:17:07.418Z,10.51
2023-03-29T09:20:01.309Z,10.54
2023-03-29T09:22:41.396Z,10.67
2023-03-29T09:25:10.984Z,10.67
2023-03-29T09:28:29.952Z,10.67
2023-03-29T09:31:21.703Z,10.64
2023-03-29T09:34:08.987Z,10.64
2023-03-29T09:36:56.748Z,10.64
2023-03-29T09:39:26.365Z,10.65
2023-03-29T09:42:04.197Z,10.71
2023-03-29T09:44:38.952Z,10.74
2023-03-29T09:47:18.547Z,10.77
2023-03-29T09:49:49.688Z,10.76
2023-03-29T09:52:18.217Z,10.80
2023-03-29T09:54:44.741Z,10.87
2023-03-29T09:57:15.617Z,10.97
2023-03-29T09:59:44.512Z,11.05
2023-03-29T10:02:12.994Z,11.11
2023-03-29T10:04:42.088Z,11.19
2023-03-29T10:07:16.029Z,11.24
2023-03-29T10:09:45.510Z,11.31
2023-03-29T10:12:13.747Z,11.27
2023-03-29T10:14:46.491Z,11.23
2023-03-29T10:17:26.489Z,11.25
2023-03-29T10:19:58.152Z,11.19
2023-03-29T10:22:27.758Z,11.22
2023-03-29T10:24:57.164Z,11.17
2023-03-29T10:27:29.148Z,11.14
2023-03-29T10:29:58.325Z,11.08
2023-03-29T10:32:33.411Z,11.09
2023-03-29T10:35:10.770Z,11.13
2023-03-29T10:37:51.028Z,11.12
2023-03-29T10:40:26.486Z,11.23
2023-03-29T10:42:53.968Z,11.29
2023-03-29T10:45:27.130Z,11.35
2023-03-29T10:47:56.938Z,11.29
2023-03-29T10:50:23.666Z,11.21
2023-03-29T10:52:51.019Z,11.15
2023-03-29T10:55:18.749Z,11.10
2023-03-29T10:57:57.366Z,11.14
2023-03-29T11:00:34.622Z,11.22
2023-03-29T11:03:33.233Z,11.28
2023-03-29T11:06:11.884Z,11.40
2023-03-29T11:08:44.033Z,11.52
2023-03-29T11:11:19.830Z,11.61
2023-03-29T11:14:21.963Z,11.61
2023-03-29T11:17:25.003Z,11.54
2023-03-29T11:20:22.393Z,11.59
2023-03-29T11:23:16.404Z,11.68
2023-03-29T11:25:53.244Z,11.69
2023-03-29T11:28:35.302Z,11.66
2023-03-29T11:31:04.854Z,11.70
2023-03-29T11:33:48.133Z,11.68
2023-03-29T11:36:23.992Z,11.65
2023-03-29T11:39:12.305Z,11.62
2023-03-29T11:41:42.530Z,11.68
2023-03-29T11:44:19.384Z,11.72
2023-03-29T11:46:54.594Z,11.72
2023-03-29T11:49:26.500Z,11.74
2023-03-29T11:52:08.415Z,11.70
2023-03-29T11:54:48.772Z,11.70
2023-03-29T11:57:38.365Z,11.67
2023-03-29T12:00:19.566Z,11.64
2023-03-29T12:02:47.875Z,11.64
2023-03-29T12:05:30.525Z,11.70
2023-03-29T12:08:04.563Z,11.74
2023-03-29T12:10:36.140Z,11.76
2023-03-29T12:13:07.326Z,11.78
2023-03-29T12:15:58.766Z,11.80
2023-03-29T12:18:31.927Z,11.79
2023-03-29T12:21:06.839Z,11.79
2023-03-29T12:23:34.034Z,11.71
2023-03-29T12:26:30.250Z,11.65
2023-03-29T12:29:09.362Z,11.61
2023-03-29T12:31:56.254Z,11.58
2023-03-29T12:34:37.978Z,11.53
2023-03-29T12:37:31.100Z,11.56
2023-03-29T12:40:10.632Z,11.57
2023-03-29T12:42:45.456Z,11.61
2023-03-29T12:45:19.978Z,11.63
2023-03-29T12:47:48.861Z,11.66
2023-03-29T12:50:25.537Z,11.70
2023-03-29T12:52:52.099Z,11.77
2023-03-29T12:55:31.490Z,11.90
2023-03-29T12:58:08.352Z,12.08
2023-03-29T13:00:42.134Z,12.22
2023-03-29T13:03:45.152Z,12.33
2023-03-29T13:06:13.408Z,12.52
2023-03-29T13:08:44.763Z,12.61
2023-03-29T13:11:34.776Z,12.58
2023-03-29T13:14:11.616Z,12.64
2023-03-29T13:16:40.574Z,12.75
2023-03-29T13:19:13.849Z,12.83
2023-03-29T13:21:59.934Z,12.86
2023-03-29T13:24:45.149Z,12.91
2023-03-29T13:27:18.004Z,13.02
2023-03-29T13:30:09.137Z,13.18
2023-03-29T13:32:57.286Z,13.32
2023-03-29T13:35:42.516Z,13.36
2023-03-29T13:38:26.681Z,13.25
2023-03-29T13:40:53.122Z,13.24
2023-03-29T13:43:19.558Z,13.24
2023-03-29T13:46:04.040Z,13.26
2023-03-29T13:48:36.824Z,13.22
2023-03-29T13:51:52.842Z,13.20
2023-03-29T13:54:36.541Z,13.23
2023-03-29T13:57:29.405Z,13.35
2023-03-29T14:00:17.786Z,13.46
2023-03-29T14:02:55.005Z,13.52
2023-03-29T14:05:35.957Z,13.57
2023-03-29T14:08:39.736Z,13.66
2023-03-29T14:11:08.386Z,13.64
2023-03-29T14:13:35.129Z,13.75
2023-03-29T14:16:12.202Z,13.86
2023-03-29T14:18:44.639Z,13.93
2023-03-29T14:21:13.870Z,14.00
2023-03-29T14:23:44.977Z,14.03
2023-03-29T14:26:21.884Z,14.05
2023-03-29T14:28:53.508Z,14.11
2023-03-29T14:31:23.009Z,14.14
2023-03-29T14:33:54.474Z,14.27
2023-03-29T14:36:22.517Z,14.31
2023-03-29T14:38:57.900Z,14.37
2023-03-29T14:41:30.254Z,14.47
2023-03-29T14:43:58.309Z,14.54
2023-03-29T14:46:25.723Z,14.58
2023-03-29T14:48:52.701Z,14.66
2023-03-29T14:51:20.715Z,14.67
2023-03-29T14:53:49.277Z,14.69
2023-03-29T14:56:18.227Z,14.68
2023-03-29T14:58:48.903Z,14.65
2023-03-29T15:01:23.613Z,14.64
2023-03-29T15:03:55.245Z,14.63
2023-03-29T15:06:24.070Z,14.62
2023-03-29T15:09:02.058Z,14.68
2023-03-29T15:11:31.676Z,14.78
2023-03-29T15:14:05.073Z,14.89
2023-03-29T15:16:32.707Z,14.93
2023-03-29T15:19:01.777Z,14.99
2023-03-29T15:21:34.366Z,14.98
2023-03-29T15:24:03.230Z,15.00
2023-03-29T15:26:35.851Z,15.02
2023-03-29T15:29:13.011Z,14.98
2023-03-29T15:31:41.802Z,14.91
2023-03-29T15:34:12.791Z,14.90
2023-03-29T15:36:47.450Z,14.86
2023-03-29T15:39:16.242Z,14.79
2023-03-29T15:41:44.949Z,14.75
2023-03-29T15:44:14.960Z,14.72
2023-03-29T15:46:41.848Z,14.68
2023-03-29T15:49:12.349Z,14.64
2023-03-29T15:51:39.978Z,14.59
2023-03-29T15:54:07.887Z,14.56
2023-03-29T15:56:48.063Z,14.54
2023-03-29T15:59:14.888Z,14.54
2023-03-29T16:01:41.841Z,14.53
2023-03-29T16:04:14.274Z,14.51
2023-03-29T16:06:41.338Z,14.50
2023-03-29T16:09:08.735Z,14.49
2023-03-29T16:11:35.400Z,14.47
2023-03-29T16:14:01.861Z,14.42
2023-03-29T16:16:28.692Z,14.39
2023-03-29T16:18:55.161Z,14.38
2023-03-29T16:21:22.814Z,14.33
2023-03-29T16:23:49.406Z,14.32
2023-03-29T16:26:17.023Z,14.28
2023-03-29T16:28:43.969Z,14.30
2023-03-29T16:31:12.488Z,14.30
2023-03-29T16:33:42.250Z,14.29
2023-03-29T16:36:10.279Z,14.30
2023-03-29T16:38:37.070Z,14.30
2023-03-29T16:41:03.860Z,14.29
2023-03-29T16:43:30.503Z,14.22
2023-03-29T16:45:57.436Z,14.20
2023-03-29T16:48:23.984Z,14.18
2023-03-29T16:50:50.709Z,14.18
2023-03-29T16:53:19.662Z,14.15
2023-03-29T16:55:47.240Z,14.15
2023-03-29T16:58:15.419Z,14.14
2023-03-29T17:00:43.061Z,14.16
2023-03-29T17:03:11.035Z,14.13
2023-03-29T17:05:41.388Z,14.11
2023-03-29T17:08:10.013Z,14.13
2023-03-29T17:10:39.375Z,14.11
2023-03-29T17:13:05.859Z,14.12
2023-03-29T17:15:32.446Z,14.14
2023-03-29T17:17:59.088Z,14.14
2023-03-29T17:20:25.735Z,14.11
2023-03-29T17:22:55.283Z,14.08
2023-03-29T17:25:23.060Z,14.04
2023-03-29T17:27:49.982Z,14.03
2023-03-29T17:30:16.713Z,14.00
2023-03-29T17:32:43.275Z,14.01
2023-03-29T17:35:10.692Z,14.00
2023-03-29T17:37:37.425Z,13.96
2023-03-29T17:40:13.551Z,13.95
2023-03-29T17:42:41.086Z,13.93
2023-03-29T17:45:08.816Z,13.89
2023-03-29T17:47:35.460Z,13.84
2023-03-29T17:50:02.056Z,13.82
2023-03-29T17:52:28.524Z,13.77
2023-03-29T17:54:55.358Z,13.73
2023-03-29T17:57:22.058Z,13.71
2023-03-29T17:59:48.553Z,13.70
2023-03-29T18:02:21.327Z,13.63
2023-03-29T18:04:48.608Z,13.62
2023-03-29T18:07:15.389Z,13.53
2023-03-29T18:09:42.129Z,13.48
2023-03-29T18:12:08.916Z,13.41
2023-03-29T18:14:35.838Z,13.37
2023-03-29T18:17:02.515Z,13.36
2023-03-29T18:19:29.024Z,13.33
2023-03-29T18:21:56.221Z,13.36
2023-03-29T18:24:22.732Z,13.35
2023-03-29T18:26:49.191Z,13.33
2023-03-29T18:29:15.850Z,13.30
2023-03-29T18:31:43.623Z,13.26
2023-03-29T18:34:10.240Z,13.23
2023-03-29T18:36:37.175Z,13.16
2023-03-29T18:39:06.897Z,13.09
2023-03-29T18:41:35.583Z,12.99
2023-03-29T18:44:02.143Z,12.92
2023-03-29T18:46:31.371Z,12.88
2023-03-29T18:48:59.181Z,12.85
2023-03-29T18:51:28.027Z,12.86
2023-03-29T18:53:55.881Z,12.83
2023-03-29T18:56:22.806Z,12.82
2023-03-29T18:58:49.348Z,12.80
2023-03-29T19:01:16.248Z,12.82
2023-03-29T19:03:43.075Z,12.82
2023-03-29T19:06:09.894Z,12.84
2023-03-29T19:08:38.708Z,12.84
2023-03-29T19:11:07.338Z,12.85
2023-03-29T19:13:34.995Z,12.85
2023-03-29T19:16:01.695Z,12.84
2023-03-29T19:18:28.430Z,12.86
2023-03-29T19:20:55.133Z,12.89
2023-03-29T19:23:25.926Z,12.88
2023-03-29T19:25:55.935Z,12.87
2023-03-29T19:28:23.734Z,12.86
2023-03-29T19:30:50.395Z,12.87
2023-03-29T19:33:17.328Z,12.86
2023-03-29T19:35:44.602Z,12.86
2023-03-29T19:38:11.155Z,12.85
2023-03-29T19:40:37.784Z,12.86
2023-03-29T19:43:04.902Z,12.82
2023-03-29T19:45:31.408Z,12.83
2023-03-29T19:48:03.004Z,12.80
2023-03-29T19:50:31.563Z,12.82
2023-03-29T19:52:58.472Z,12.80
2023-03-29T19:55:25.388Z,12.76
2023-03-29T19:57:52.322Z,12.75
2023-03-29T20:00:19.197Z,12.70
2023-03-29T20:02:45.734Z,12.71
2023-03-29T20:05:12.498Z,12.67
2023-03-29T20:07:39.086Z,12.71
2023-03-29T20:10:06.122Z,12.73
2023-03-29T20:12:32.615Z,12.71
2023-03-29T20:14:59.027Z,12.71
2023-03-29T20:17:25.676Z,12.69
2023-03-29T20:19:53.893Z,12.71
2023-03-29T20:22:20.411Z,12.70
2023-03-29T20:24:47.184Z,12.69
2023-03-29T20:27:13.882Z,12.70
2023-03-29T20:29:40.363Z,12.69
2023-03-29T20:32:07.064Z,12.67
2023-03-29T20:34:33.644Z,12.71
2023-03-29T20:37:02.095Z,12.71
2023-03-29T20:39:29.630Z,12.71
2023-03-29T20:41:56.105Z,12.72
2023-03-29T20:44:26.229Z,12.77
2023-03-29T20:47:08.440Z,12.76
2023-03-29T20:49:39.213Z,12.76
2023-03-29T20:52:10.621Z,12.74
2023-03-29T20:54:37.304Z,12.72
2023-03-29T20:57:04.928Z,12.72
2023-03-29T20:59:31.523Z,12.72
2023-03-29T21:02:00.081Z,12.73
2023-03-29T21:04:27.755Z,12.73
2023-03-29T21:06:54.275Z,12.71
2023-03-29T21:09:22.102Z,12.70
2023-03-29T21:11:49.460Z,12.72
2023-03-29T21:14:19.575Z,12.68
2023-03-29T21:16:49.690Z,12.66
2023-03-29T21:19:16.712Z,12.61
2023-03-29T21:21:44.866Z,12.63
2023-03-29T21:24:13.457Z,12.60
2023-03-29T21:26:41.088Z,12.60
2023-03-29T21:29:07.823Z,12.60
2023-03-29T21:31:34.441Z,12.55
2023-03-29T21:34:00.959Z,12.53
2023-03-29T21:36:27.518Z,12.53
2023-03-29T21:38:54.057Z,12.51
2023-03-29T21:41:20.735Z,12.51
2023-03-29T21:43:48.046Z,12.51
2023-03-29T21:46:15.515Z,12.46
2023-03-29T21:48:42.058Z,12.43
2023-03-29T21:51:09.274Z,12.45
2023-03-29T21:53:36.173Z,12.42
2023-03-29T21:56:03.126Z,12.40
2023-03-29T21:58:30.760Z,12.39
2023-03-29T22:00:57.292Z,12.40
2023-03-29T22:03:23.973Z,12.35
2023-03-29T22:06:02.594Z,12.33
2023-03-29T22:08:29.970Z,12.32
2023-03-29T22:10:57.442Z,12.34
2023-03-29T22:13:28.400Z,12.37
2023-03-29T22:15:59.474Z,12.36
2023-03-29T22:18:42.271Z,12.38
2023-03-29T22:21:31.028Z,12.40
2023-03-29T22:23:59.499Z,12.42
2023-03-29T22:26:29.202Z,12.45
2023-03-29T22:28:56.736Z,12.45
2023-03-29T22:31:25.042Z,12.44
2023-03-29T22:33:51.618Z,12.43
2023-03-29T22:36:23.377Z,12.44
2023-03-29T22:38:51.143Z,12.43
2023-03-29T22:41:18.933Z,12.43
2023-03-29T22:43:45.445Z,12.46
2023-03-29T22:46:13.892Z,12.46
2023-03-29T22:48:41.216Z,12.44
2023-03-29T22:51:07.769Z,12.45
2023-03-29T22:53:34.860Z,12.42
2023-03-29T22:56:01.340Z,12.43
2023-03-29T22:58:29.377Z,12.44
2023-03-29T23:00:57.117Z,12.48
2023-03-29T23:03:23.982Z,12.51
2023-03-29T23:05:52.273Z,12.54
2023-03-29T23:08:19.101Z,12.52
2023-03-29T23:10:46.564Z,12.50
2023-03-29T23:13:20.558Z,12.53
2023-03-29T23:15:48.712Z,12.54
2023-03-29T23:18:18.198Z,12.55
2023-03-29T23:20:44.676Z,12.55
2023-03-29T23:23:11.143Z,12.53
2023-03-29T23:25:37.584Z,12.56
2023-03-29T23:28:04.298Z,12.57
2023-03-29T23:30:31.023Z,12.56
2023-03-29T23:32:58.227Z,12.58
2023-03-29T23:35:24.837Z,12.60
2023-03-29T23:37:51.301Z,12.61
2023-03-29T23:40:17.831Z,12.60
2023-03-29T23:42:46.361Z,12.56
2023-03-29T23:45:15.865Z,12.59
2023-03-29T23:47:43.981Z,12.60
2023-03-29T23:50:13.420Z,12.59
2023-03-29T23:52:41.542Z,12.57
2023-03-29T23:55:12.498Z,12.59
2023-03-29T23:57:38.980Z,12.57
